createdAt,value
2022-11-30T00:01:55.953Z,21.30
2022-11-30T00:04:25.299Z,21.42
2022-11-30T00:07:00.389Z,22.83
2022-11-30T00:09:46.978Z,22.27
2022-11-30T00:12:26.029Z,21.85
2022-11-30T00:14:53.317Z,23.00
2022-11-30T00:20:24.627Z,21.20
2022-11-30T00:22:52.078Z,21.73
2022-11-30T00:25:18.877Z,21.38
2022-11-30T00:27:46.019Z,23.88
2022-11-30T00:30:13.891Z,23.02
2022-11-30T00:32:41.256Z,23.00
2022-11-30T00:35:08.592Z,22.73
2022-11-30T00:37:35.898Z,21.15
2022-11-30T00:40:02.786Z,21.35
2022-11-30T00:42:30.009Z,20.38
2022-11-30T00:44:56.996Z,20.65
2022-11-30T00:47:24.385Z,19.83
2022-11-30T00:49:54.270Z,21.25
2022-11-30T00:52:21.501Z,19.83
2022-11-30T00:54:48.546Z,20.02
2022-11-30T00:57:15.853Z,22.55
2022-11-30T00:59:42.775Z,20.17
2022-11-30T01:02:09.902Z,21.70
2022-11-30T01:04:39.894Z,19.90
2022-11-30T01:07:06.962Z,19.92
2022-11-30T01:10:00.122Z,20.48
2022-11-30T01:12:32.599Z,19.25
2022-11-30T01:15:04.265Z,19.25
2022-11-30T01:17:31.722Z,19.90
2022-11-30T01:19:59.174Z,18.48
2022-11-30T01:22:26.584Z,18.98
2022-11-30T01:24:53.917Z,18.23
2022-11-30T01:27:21.404Z,18.30
2022-11-30T01:29:50.683Z,18.45
2022-11-30T01:32:17.709Z,17.83
2022-11-30T01:34:44.809Z,17.80
2022-11-30T01:37:12.002Z,18.63
2022-11-30T01:39:39.179Z,18.85
2022-11-30T01:42:18.181Z,17.58
2022-11-30T01:44:48.543Z,18.67
2022-11-30T01:47:16.623Z,18.38
2022-11-30T01:49:57.124Z,17.15
2022-11-30T01:52:40.453Z,17.88
2022-11-30T01:55:51.886Z,18.23
2022-11-30T01:58:32.508Z,16.55
2022-11-30T02:01:00.104Z,18.38
2022-11-30T02:03:46.861Z,17.58
2022-11-30T02:06:16.811Z,16.95
2022-11-30T02:08:44.879Z,18.30
2022-11-30T02:11:15.931Z,17.05
2022-11-30T02:14:16.054Z,17.10
2022-11-30T02:17:35.759Z,17.10
2022-11-30T02:20:48.019Z,17.70
2022-11-30T02:23:58.312Z,17.63
2022-11-30T02:27:07.754Z,17.20
2022-11-30T02:29:47.364Z,17.98
2022-11-30T02:32:31.942Z,17.17
2022-11-30T02:35:08.020Z,18.40
2022-11-30T02:37:39.486Z,16.88
2022-11-30T02:40:11.304Z,18.02
2022-11-30T02:42:40.595Z,18.55
2022-11-30T02:45:10.961Z,18.45
2022-11-30T02:47:52.754Z,17.55
2022-11-30T02:50:35.466Z,17.13
2022-11-30T02:53:03.476Z,18.02
2022-11-30T02:55:32.187Z,18.05
2022-11-30T02:58:00.432Z,17.95
2022-11-30T03:00:35.029Z,16.95
2022-11-30T03:03:02.987Z,17.63
2022-11-30T03:05:30.548Z,18.17
2022-11-30T03:07:57.799Z,16.98
2022-11-30T03:10:25.463Z,16.92
2022-11-30T03:12:52.693Z,18.02
2022-11-30T03:15:31.640Z,19.23
2022-11-30T03:18:03.090Z,18.90
2022-11-30T03:20:30.653Z,18.02
2022-11-30T03:23:03.246Z,18.13
2022-11-30T03:25:35.894Z,17.65
2022-11-30T03:28:03.565Z,16.30
2022-11-30T03:30:30.492Z,17.80
2022-11-30T03:32:57.678Z,17.13
2022-11-30T03:35:24.698Z,18.15
2022-11-30T03:37:52.093Z,18.67
2022-11-30T03:40:19.949Z,17.90
2022-11-30T03:42:47.428Z,17.88
2022-11-30T03:45:14.698Z,17.88
2022-11-30T03:47:43.362Z,17.73
2022-11-30T03:50:11.198Z,16.50
2022-11-30T03:52:38.349Z,18.70
2022-11-30T03:55:05.908Z,17.55
2022-11-30T03:57:33.030Z,17.67
2022-11-30T03:59:59.992Z,17.58
2022-11-30T04:02:27.577Z,18.50
2022-11-30T04:04:54.890Z,17.95
2022-11-30T04:07:22.613Z,18.85
2022-11-30T04:09:51.146Z,16.13
2022-11-30T04:12:18.233Z,17.90
2022-11-30T04:14:45.573Z,17.42
2022-11-30T04:17:41.445Z,18.73
2022-11-30T04:20:15.728Z,17.73
2022-11-30T04:22:45.586Z,18.48
2022-11-30T04:25:12.974Z,18.90
2022-11-30T04:27:40.442Z,16.83
2022-11-30T04:30:08.421Z,20.08
2022-11-30T04:32:35.782Z,18.48
2022-11-30T04:35:02.946Z,19.33
2022-11-30T04:37:30.758Z,19.67
2022-11-30T04:39:58.076Z,18.48
2022-11-30T04:42:25.532Z,19.48
2022-11-30T04:44:53.017Z,19.85
2022-11-30T04:47:22.735Z,18.63
2022-11-30T04:49:49.934Z,18.83
2022-11-30T04:52:17.365Z,19.95
2022-11-30T04:54:44.547Z,18.73
2022-11-30T04:57:12.126Z,19.83
2022-11-30T04:59:39.230Z,19.73
2022-11-30T05:02:06.497Z,18.92
2022-11-30T05:04:33.635Z,21.25
2022-11-30T05:07:01.384Z,21.48
2022-11-30T05:10:00.076Z,21.15
2022-11-30T05:12:33.781Z,19.98
2022-11-30T05:15:00.795Z,19.08
2022-11-30T05:17:28.114Z,19.30
2022-11-30T05:19:57.951Z,18.77
2022-11-30T05:22:25.135Z,19.33
2022-11-30T05:24:52.018Z,20.20
2022-11-30T05:27:22.499Z,20.05
2022-11-30T05:29:53.993Z,21.08
2022-11-30T05:32:22.851Z,20.08
2022-11-30T05:34:52.135Z,18.35
2022-11-30T05:37:20.190Z,19.83
2022-11-30T05:39:49.739Z,21.05
2022-11-30T05:42:16.983Z,21.23
2022-11-30T05:44:43.924Z,20.83
2022-11-30T05:47:12.368Z,20.05
2022-11-30T05:49:39.386Z,21.50
2022-11-30T05:52:06.480Z,20.73
2022-11-30T05:54:34.885Z,20.83
2022-11-30T05:57:02.038Z,22.52
2022-11-30T05:59:28.918Z,20.52
2022-11-30T06:01:56.319Z,20.75
2022-11-30T06:04:23.505Z,21.65
2022-11-30T06:06:56.002Z,21.40
2022-11-30T06:09:42.822Z,20.95
2022-11-30T06:12:10.739Z,21.15
2022-11-30T06:14:38.086Z,21.73
2022-11-30T06:17:05.652Z,21.55
2022-11-30T06:19:33.175Z,23.83
2022-11-30T06:22:00.718Z,23.08
2022-11-30T06:24:28.608Z,23.40
2022-11-30T06:26:56.267Z,29.98
2022-11-30T06:29:23.756Z,23.90
2022-11-30T06:31:51.297Z,23.02
2022-11-30T06:34:55.736Z,23.38
2022-11-30T06:37:34.121Z,20.85
2022-11-30T06:40:07.369Z,22.15
2022-11-30T06:42:39.182Z,22.02
2022-11-30T06:45:09.157Z,21.85
2022-11-30T06:47:39.464Z,23.55
2022-11-30T06:50:08.212Z,21.70
2022-11-30T06:52:35.741Z,20.52
2022-11-30T06:55:03.007Z,22.27
2022-11-30T06:57:30.832Z,22.15
2022-11-30T06:59:58.453Z,20.50
2022-11-30T07:02:25.886Z,20.45
2022-11-30T07:04:52.794Z,20.70
2022-11-30T07:07:19.927Z,21.45
2022-11-30T07:09:46.901Z,23.55
2022-11-30T07:12:14.040Z,24.30
2022-11-30T07:14:40.914Z,23.58
2022-11-30T07:17:08.070Z,21.33
2022-11-30T07:19:35.281Z,20.25
2022-11-30T07:22:02.891Z,21.05
2022-11-30T07:24:49.337Z,22.88
2022-11-30T07:27:18.490Z,21.48
2022-11-30T07:29:51.518Z,21.40
2022-11-30T07:32:19.330Z,22.02
2022-11-30T07:34:46.859Z,21.63
2022-11-30T07:37:48.957Z,24.08
2022-11-30T07:40:17.510Z,23.80
2022-11-30T07:42:48.017Z,21.38
2022-11-30T07:46:13.119Z,23.27
2022-11-30T07:51:18.353Z,23.10
2022-11-30T07:53:49.558Z,21.75
2022-11-30T07:56:19.924Z,24.63
2022-11-30T07:58:51.589Z,24.38
2022-11-30T08:01:25.037Z,23.13
2022-11-30T08:03:53.706Z,21.58
2022-11-30T08:06:28.890Z,23.33
2022-11-30T08:11:30.686Z,21.77
2022-11-30T08:14:04.647Z,21.88
2022-11-30T08:16:46.138Z,22.77
2022-11-30T08:19:13.471Z,27.88
2022-11-30T08:21:51.927Z,22.13
2022-11-30T08:24:19.523Z,22.55
2022-11-30T08:26:52.996Z,24.73
2022-11-30T08:29:27.328Z,22.13
2022-11-30T08:31:55.005Z,23.25
2022-11-30T08:34:22.165Z,24.08
2022-11-30T08:36:52.011Z,23.08
2022-11-30T08:39:19.552Z,22.33
2022-11-30T08:41:46.417Z,22.95
2022-11-30T08:44:13.690Z,23.63
2022-11-30T08:46:51.544Z,22.98
2022-11-30T08:49:23.021Z,20.42
2022-11-30T08:54:50.943Z,22.10
2022-11-30T08:57:21.506Z,21.98
2022-11-30T08:59:49.117Z,20.15
2022-11-30T09:02:19.210Z,21.63
2022-11-30T09:04:53.705Z,20.25
2022-11-30T09:07:21.099Z,19.58
2022-11-30T09:09:48.605Z,20.20
2022-11-30T09:12:16.007Z,20.35
2022-11-30T09:14:46.897Z,20.13
2022-11-30T09:17:15.878Z,19.95
2022-11-30T09:19:43.739Z,20.30
2022-11-30T09:22:11.273Z,19.13
2022-11-30T09:24:41.967Z,20.58
2022-11-30T09:27:12.894Z,19.67
2022-11-30T09:29:41.040Z,20.75
2022-11-30T09:32:10.964Z,19.90
2022-11-30T09:34:38.155Z,20.40
2022-11-30T09:37:05.110Z,20.02
2022-11-30T09:39:32.807Z,22.17
2022-11-30T09:42:27.633Z,18.98
2022-11-30T09:48:29.030Z,19.58
2022-11-30T09:51:09.716Z,18.10
2022-11-30T09:53:52.099Z,20.33
2022-11-30T09:56:38.024Z,18.77
2022-11-30T09:59:33.126Z,19.23
2022-11-30T10:02:17.612Z,18.77
2022-11-30T10:04:45.822Z,18.25
2022-11-30T10:07:50.959Z,19.48
2022-11-30T10:10:41.313Z,20.83
2022-11-30T10:13:32.160Z,20.08
2022-11-30T10:16:21.568Z,20.65
2022-11-30T10:19:11.168Z,19.30
2022-11-30T10:21:50.559Z,18.48
2022-11-30T10:25:13.859Z,19.15
2022-11-30T10:28:17.810Z,18.33
2022-11-30T10:30:49.595Z,18.30
2022-11-30T10:33:27.552Z,18.60
2022-11-30T10:36:04.543Z,19.20
2022-11-30T10:38:43.461Z,18.08
2022-11-30T10:41:23.453Z,18.70
2022-11-30T10:44:05.075Z,18.85
2022-11-30T10:46:43.939Z,18.63
2022-11-30T10:49:24.355Z,17.60
2022-11-30T10:52:03.957Z,19.08
2022-11-30T10:54:32.523Z,19.80
2022-11-30T10:57:07.771Z,19.77
2022-11-30T10:59:53.025Z,18.98
2022-11-30T11:02:36.867Z,19.75
2022-11-30T11:05:34.382Z,21.50
2022-11-30T11:08:23.062Z,19.35
2022-11-30T11:10:54.302Z,19.73
2022-11-30T11:13:44.681Z,21.80
2022-11-30T11:16:14.239Z,20.85
2022-11-30T11:18:57.103Z,21.27
2022-11-30T11:21:25.060Z,19.45
2022-11-30T11:24:10.513Z,21.05
2022-11-30T11:26:38.479Z,19.42
2022-11-30T11:29:41.347Z,20.95
2022-11-30T11:32:26.990Z,20.80
2022-11-30T11:34:54.140Z,20.02
2022-11-30T11:37:24.471Z,20.25
2022-11-30T11:40:18.758Z,21.55
2022-11-30T11:42:52.575Z,20.70
2022-11-30T11:45:32.156Z,19.77
2022-11-30T11:48:12.688Z,20.00
2022-11-30T11:53:53.813Z,19.13
2022-11-30T11:56:32.309Z,21.80
2022-11-30T11:59:19.315Z,19.85
2022-11-30T12:02:08.335Z,21.63
2022-11-30T12:05:00.509Z,21.08
2022-11-30T12:07:59.761Z,19.08
2022-11-30T12:10:59.764Z,20.73
2022-11-30T12:13:49.152Z,19.83
2022-11-30T12:17:05.677Z,19.20
2022-11-30T12:19:47.306Z,19.48
2022-11-30T12:22:40.905Z,18.15
2022-11-30T12:25:29.392Z,20.75
2022-11-30T12:28:22.644Z,22.35
2022-11-30T12:31:49.311Z,18.25
2022-11-30T12:38:08.300Z,18.77
2022-11-30T12:41:23.351Z,18.33
2022-11-30T12:44:42.157Z,18.58
2022-11-30T12:47:46.711Z,19.58
2022-11-30T12:50:35.667Z,19.33
2022-11-30T12:53:34.570Z,19.98
2022-11-30T12:56:25.821Z,18.42
2022-11-30T12:59:38.255Z,19.05
2022-11-30T13:02:13.522Z,19.27
2022-11-30T13:04:58.335Z,19.67
2022-11-30T13:08:08.205Z,19.98
2022-11-30T13:10:42.913Z,18.45
2022-11-30T13:13:20.228Z,19.23
2022-11-30T13:15:49.879Z,19.17
2022-11-30T13:18:22.468Z,18.23
2022-11-30T13:21:06.823Z,18.15
2022-11-30T13:26:46.180Z,18.85
2022-11-30T13:30:00.032Z,18.85
2022-11-30T13:32:56.845Z,19.88
2022-11-30T13:35:30.932Z,20.60
2022-11-30T13:38:38.561Z,22.38
2022-11-30T13:41:09.008Z,19.35
2022-11-30T13:43:48.473Z,21.15
2022-11-30T13:46:25.977Z,21.52
2022-11-30T13:49:45.192Z,20.55
2022-11-30T13:52:23.967Z,21.52
2022-11-30T13:55:02.945Z,20.45
2022-11-30T13:57:56.190Z,21.33
2022-11-30T14:00:34.976Z,20.27
2022-11-30T14:03:28.397Z,21.25
2022-11-30T14:05:58.890Z,20.90
2022-11-30T14:08:36.198Z,20.65
2022-11-30T14:11:44.420Z,22.00
2022-11-30T14:15:01.122Z,21.15
2022-11-30T14:17:34.637Z,19.88
2022-11-30T14:20:27.892Z,21.00
2022-11-30T14:22:54.908Z,21.00
2022-11-30T14:25:22.777Z,21.45
2022-11-30T14:27:57.411Z,22.25
2022-11-30T14:33:07.201Z,23.40
2022-11-30T14:35:40.495Z,21.52
2022-11-30T14:38:31.361Z,21.63
2022-11-30T14:40:59.253Z,20.63
2022-11-30T14:43:26.660Z,21.67
2022-11-30T14:46:17.858Z,22.50
2022-11-30T14:48:45.389Z,22.08
2022-11-30T14:51:13.141Z,23.00
2022-11-30T14:54:07.584Z,21.92
2022-11-30T14:57:02.128Z,21.57
2022-11-30T14:59:47.650Z,21.33
2022-11-30T15:02:38.689Z,22.52
2022-11-30T15:05:15.218Z,20.70
2022-11-30T15:07:47.940Z,22.48
2022-11-30T15:10:34.202Z,20.35
2022-11-30T15:13:03.764Z,22.17
2022-11-30T15:15:31.501Z,22.30
2022-11-30T15:18:14.920Z,22.63
2022-11-30T15:20:54.821Z,22.73
2022-11-30T15:23:22.738Z,21.17
2022-11-30T15:26:12.942Z,21.27
2022-11-30T15:29:06.899Z,21.45
2022-11-30T15:31:45.797Z,19.75
2022-11-30T15:34:40.070Z,20.08
2022-11-30T15:37:08.505Z,22.05
2022-11-30T15:39:37.633Z,21.23
2022-11-30T15:42:08.980Z,21.90
2022-11-30T15:44:51.414Z,20.52
2022-11-30T15:47:46.148Z,22.40
2022-11-30T15:50:37.725Z,21.52
2022-11-30T15:53:32.132Z,22.10
2022-11-30T15:56:24.454Z,19.75
2022-11-30T15:59:45.264Z,22.95
2022-11-30T16:02:43.035Z,21.58
2022-11-30T16:05:58.584Z,22.60
2022-11-30T16:08:26.969Z,20.90
2022-11-30T16:11:28.659Z,21.83
2022-11-30T16:13:56.972Z,21.67
2022-11-30T16:16:31.341Z,19.63
2022-11-30T16:19:00.213Z,22.58
2022-11-30T16:21:27.967Z,23.17
2022-11-30T16:23:56.050Z,24.15
2022-11-30T16:26:50.025Z,22.83
2022-11-30T16:29:15.435Z,22.42
2022-11-30T16:31:45.701Z,22.13
2022-11-30T16:34:13.487Z,24.38
2022-11-30T16:36:40.606Z,23.17
2022-11-30T16:39:18.572Z,23.58
2022-11-30T16:41:46.852Z,22.13
2022-11-30T16:44:15.120Z,21.23
2022-11-30T16:46:42.651Z,24.70
2022-11-30T16:49:10.426Z,22.75
2022-11-30T16:51:37.794Z,22.05
2022-11-30T16:54:09.956Z,23.77
2022-11-30T16:56:37.122Z,21.15
2022-11-30T16:59:04.467Z,21.27
2022-11-30T17:01:42.325Z,21.48
2022-11-30T17:04:22.539Z,22.15
2022-11-30T17:06:53.670Z,21.40
2022-11-30T17:09:38.439Z,24.27
2022-11-30T17:12:06.216Z,22.20
2022-11-30T17:14:33.993Z,22.90
2022-11-30T17:17:03.027Z,22.70
2022-11-30T17:19:34.761Z,22.27
2022-11-30T17:22:03.041Z,23.13
2022-11-30T17:24:30.593Z,23.17
2022-11-30T17:26:57.653Z,23.17
2022-11-30T17:29:25.332Z,22.33
2022-11-30T17:31:52.214Z,24.70
2022-11-30T17:34:19.357Z,27.17
2022-11-30T17:36:47.082Z,23.88
2022-11-30T17:39:14.266Z,22.30
2022-11-30T17:41:41.929Z,24.98
2022-11-30T17:44:10.620Z,24.17
2022-11-30T17:46:38.876Z,23.92
2022-11-30T17:49:06.597Z,21.77
2022-11-30T17:52:11.905Z,28.15
2022-11-30T17:54:39.312Z,23.00
2022-11-30T17:57:06.685Z,22.58
2022-11-30T17:59:33.782Z,22.63
2022-11-30T18:02:19.421Z,25.02
2022-11-30T18:04:51.156Z,21.95
2022-11-30T18:07:20.149Z,22.48
2022-11-30T18:09:54.704Z,23.67
2022-11-30T18:12:23.932Z,24.30
2022-11-30T18:14:53.400Z,24.48
2022-11-30T18:17:21.282Z,22.83
2022-11-30T18:22:56.894Z,23.63
2022-11-30T18:25:24.978Z,24.65
2022-11-30T18:27:57.304Z,25.25
2022-11-30T18:30:51.365Z,23.90
2022-11-30T18:33:32.235Z,23.67
2022-11-30T18:36:01.172Z,23.05
2022-11-30T18:38:34.162Z,25.98
2022-11-30T18:41:08.652Z,26.63
2022-11-30T18:43:38.337Z,25.63
2022-11-30T18:46:14.686Z,26.10
2022-11-30T18:49:06.772Z,46.65
2022-11-30T18:51:35.051Z,26.13
2022-11-30T18:54:15.997Z,26.38
2022-11-30T18:56:43.395Z,25.98
2022-11-30T18:59:21.092Z,23.05
2022-11-30T19:02:22.832Z,23.60
2022-11-30T19:05:13.195Z,38.45
2022-11-30T19:08:23.572Z,28.77
2022-11-30T19:10:50.467Z,31.15
2022-11-30T19:13:17.660Z,26.75
2022-11-30T19:15:44.767Z,25.92
2022-11-30T19:18:26.278Z,28.08
2022-11-30T19:20:53.100Z,26.33
2022-11-30T19:23:20.403Z,24.65
2022-11-30T19:25:47.312Z,22.70
2022-11-30T19:28:14.714Z,25.98
2022-11-30T19:30:41.835Z,25.23
2022-11-30T19:33:09.393Z,25.27
2022-11-30T19:35:36.619Z,27.45
2022-11-30T19:38:52.355Z,24.15
2022-11-30T19:41:22.541Z,24.70
2022-11-30T19:44:04.404Z,25.13
2022-11-30T19:46:33.487Z,24.33
2022-11-30T19:49:10.460Z,26.75
2022-11-30T19:51:37.845Z,28.45
2022-11-30T19:54:05.159Z,26.67
2022-11-30T19:56:34.778Z,27.27
2022-11-30T19:59:05.505Z,26.27
2022-11-30T20:01:35.636Z,29.05
2022-11-30T20:04:05.140Z,26.17
2022-11-30T20:06:36.403Z,27.85
2022-11-30T20:09:23.319Z,27.05
2022-11-30T20:11:53.839Z,28.20
2022-11-30T20:14:22.532Z,26.70
2022-11-30T20:16:53.680Z,27.77
2022-11-30T20:19:27.798Z,28.63
2022-11-30T20:21:55.464Z,29.55
2022-11-30T20:24:23.083Z,27.90
2022-11-30T20:26:50.535Z,31.50
2022-11-30T20:29:18.393Z,32.90
2022-11-30T20:31:48.449Z,33.53
2022-11-30T20:34:17.356Z,33.13
2022-11-30T20:36:48.968Z,29.13
2022-11-30T20:39:24.157Z,30.65
2022-11-30T20:42:25.527Z,29.80
2022-11-30T20:44:52.697Z,31.05
2022-11-30T20:48:09.116Z,30.77
2022-11-30T20:50:37.995Z,28.83
2022-11-30T20:54:07.229Z,30.83
2022-11-30T20:56:39.340Z,31.30
2022-11-30T20:59:51.196Z,30.90
2022-11-30T21:02:18.394Z,30.40
2022-11-30T21:05:21.673Z,30.80
2022-11-30T21:08:12.084Z,29.95
2022-11-30T21:10:42.578Z,30.90
2022-11-30T21:13:09.765Z,30.60
2022-11-30T21:15:36.881Z,30.08
2022-11-30T21:18:04.290Z,32.55
2022-11-30T21:20:33.698Z,36.75
2022-11-30T21:23:06.423Z,31.88
2022-11-30T21:25:36.988Z,32.15
2022-11-30T21:28:07.608Z,31.17
2022-11-30T21:30:34.403Z,30.88
2022-11-30T21:33:01.859Z,30.35
2022-11-30T21:35:29.288Z,31.38
2022-11-30T21:37:56.759Z,32.28
2022-11-30T21:40:26.666Z,32.35
2022-11-30T21:42:53.742Z,33.42
2022-11-30T21:45:20.679Z,34.10
2022-11-30T21:48:01.864Z,33.22
2022-11-30T21:50:37.923Z,32.88
2022-11-30T21:53:06.087Z,34.17
2022-11-30T21:55:33.848Z,32.63
2022-11-30T21:58:01.215Z,32.47
2022-11-30T22:00:28.374Z,32.05
2022-11-30T22:02:55.843Z,32.05
2022-11-30T22:05:23.368Z,29.90
2022-11-30T22:07:53.112Z,31.30
2022-11-30T22:10:20.155Z,30.52
2022-11-30T22:12:47.501Z,30.77
2022-11-30T22:15:14.795Z,31.75
2022-11-30T22:17:42.018Z,28.23
2022-11-30T22:20:09.403Z,31.23
2022-11-30T22:22:36.531Z,30.10
2022-11-30T22:25:03.601Z,30.27
2022-11-30T22:27:30.903Z,29.55
2022-11-30T22:29:57.992Z,28.33
2022-11-30T22:32:25.734Z,28.02
2022-11-30T22:34:52.997Z,26.90
2022-11-30T22:37:20.560Z,30.15
2022-11-30T22:39:48.202Z,29.10
2022-11-30T22:42:15.605Z,29.52
2022-11-30T22:44:43.086Z,29.98
2022-11-30T22:47:10.798Z,29.05
2022-11-30T22:49:40.893Z,28.80
2022-11-30T22:52:08.001Z,28.92
2022-11-30T22:54:35.047Z,29.55
2022-11-30T22:57:02.293Z,27.52
2022-11-30T22:59:29.116Z,29.30
2022-11-30T23:01:56.266Z,31.02
2022-11-30T23:04:23.523Z,30.63
2022-11-30T23:06:51.384Z,30.73
2022-11-30T23:09:22.666Z,30.30
2022-11-30T23:11:57.988Z,31.95
2022-11-30T23:14:25.588Z,31.05
2022-11-30T23:16:56.207Z,32.50
2022-11-30T23:19:23.294Z,31.63
2022-11-30T23:21:50.447Z,32.45
2022-11-30T23:24:21.679Z,32.45
2022-11-30T23:26:53.453Z,32.03
2022-11-30T23:29:22.323Z,30.67
2022-11-30T23:31:50.435Z,32.90
2022-11-30T23:34:22.146Z,33.95
2022-11-30T23:36:57.434Z,32.42
2022-11-30T23:39:27.568Z,31.30
2022-11-30T23:41:54.759Z,29.52
2022-11-30T23:44:21.603Z,31.92
2022-11-30T23:46:49.728Z,31.98
2022-11-30T23:49:16.772Z,30.70
2022-11-30T23:51:44.008Z,32.35
2022-11-30T23:54:10.947Z,30.55
2022-11-30T23:56:38.105Z,32.17
2022-11-30T23:59:06.056Z,31.33
